sensor_id;sensor_type;location;lat;lon;timestamp;P1;durP1;ratioP1;P2;durP2;ratioP2
56255;SDS011;57229;51.432;-2.598;2022-10-16T00:01:27;8.10;;;2.50;;
56255;SDS011;57229;51.432;-2.598;2022-10-16T00:27:10;6.70;;;2.30;;
56255;SDS011;57229;51.432;-2.598;2022-10-16T00:36:18;8.15;;;2.55;;
56255;SDS011;57229;51.432;-2.598;2022-10-16T00:38:46;10.60;;;2.60;;
56255;SDS011;57229;51.432;-2.598;2022-10-16T00:47:29;7.05;;;2.53;;
56255;SDS011;57229;51.432;-2.598;2022-10-16T00:50:00;4.55;;;2.35;;
56255;SDS011;57229;51.432;-2.598;2022-10-16T01:12:14;5.78;;;2.42;;
56255;SDS011;57229;51.432;-2.598;2022-10-16T01:18:08;8.50;;;2.53;;
56255;SDS011;57229;51.432;-2.598;2022-10-16T01:26:24;6.30;;;2.55;;
56255;SDS011;57229;51.432;-2.598;2022-10-16T01:29:34;9.43;;;2.60;;
56255;SDS011;57229;51.432;-2.598;2022-10-16T01:35:51;5.10;;;2.35;;
56255;SDS011;57229;51.432;-2.598;2022-10-16T01:39:00;11.38;;;2.72;;
56255;SDS011;57229;51.432;-2.598;2022-10-16T01:41:39;7.78;;;2.40;;
56255;SDS011;57229;51.432;-2.598;2022-10-16T01:47:39;12.43;;;2.75;;
56255;SDS011;57229;51.432;-2.598;2022-10-16T01:53:30;11.40;;;2.90;;
56255;SDS011;57229;51.432;-2.598;2022-10-16T01:56:09;6.22;;;2.20;;
56255;SDS011;57229;51.432;-2.598;2022-10-16T01:58:42;5.82;;;2.40;;
56255;SDS011;57229;51.432;-2.598;2022-10-16T02:01:15;7.47;;;2.40;;
56255;SDS011;57229;51.432;-2.598;2022-10-16T02:03:44;11.07;;;2.83;;
56255;SDS011;57229;51.432;-2.598;2022-10-16T02:06:22;8.02;;;2.60;;
56255;SDS011;57229;51.432;-2.598;2022-10-16T02:08:48;9.48;;;2.60;;
56255;SDS011;57229;51.432;-2.598;2022-10-16T02:11:24;7.75;;;2.72;;
56255;SDS011;57229;51.432;-2.598;2022-10-16T02:13:59;6.43;;;2.40;;
56255;SDS011;57229;51.432;-2.598;2022-10-16T02:16:41;12.07;;;2.55;;
56255;SDS011;57229;51.432;-2.598;2022-10-16T02:22:34;7.65;;;2.80;;
56255;SDS011;57229;51.432;-2.598;2022-10-16T02:25:54;5.70;;;2.40;;
56255;SDS011;57229;51.432;-2.598;2022-10-16T02:29:10;6.85;;;2.30;;
56255;SDS011;57229;51.432;-2.598;2022-10-16T02:31:18;9.60;;;2.78;;
56255;SDS011;57229;51.432;-2.598;2022-10-16T02:34:56;7.55;;;2.70;;
56255;SDS011;57229;51.432;-2.598;2022-10-16T02:37:09;5.97;;;2.63;;
56255;SDS011;57229;51.432;-2.598;2022-10-16T02:39:35;7.78;;;2.60;;
56255;SDS011;57229;51.432;-2.598;2022-10-16T02:42:03;6.78;;;2.38;;
56255;SDS011;57229;51.432;-2.598;2022-10-16T02:44:29;3.85;;;2.20;;
56255;SDS011;57229;51.432;-2.598;2022-10-16T02:50:19;7.40;;;2.30;;
56255;SDS011;57229;51.432;-2.598;2022-10-16T02:53:02;6.10;;;2.55;;
56255;SDS011;57229;51.432;-2.598;2022-10-16T02:58:00;5.30;;;2.38;;
56255;SDS011;57229;51.432;-2.598;2022-10-16T03:00:29;6.18;;;2.72;;
56255;SDS011;57229;51.432;-2.598;2022-10-16T03:03:35;10.10;;;2.75;;
56255;SDS011;57229;51.432;-2.598;2022-10-16T03:06:25;6.60;;;2.50;;
56255;SDS011;57229;51.432;-2.598;2022-10-16T03:08:54;6.70;;;2.67;;
56255;SDS011;57229;51.432;-2.598;2022-10-16T03:11:23;7.20;;;2.58;;
56255;SDS011;57229;51.432;-2.598;2022-10-16T03:13:49;12.02;;;2.80;;
56255;SDS011;57229;51.432;-2.598;2022-10-16T03:16:20;4.43;;;2.40;;
56255;SDS011;57229;51.432;-2.598;2022-10-16T03:18:50;7.03;;;2.50;;
56255;SDS011;57229;51.432;-2.598;2022-10-16T03:21:18;4.85;;;2.42;;
56255;SDS011;57229;51.432;-2.598;2022-10-16T03:24:10;7.18;;;2.55;;
56255;SDS011;57229;51.432;-2.598;2022-10-16T03:26:37;8.23;;;2.78;;
56255;SDS011;57229;51.432;-2.598;2022-10-16T03:29:06;6.43;;;2.35;;
56255;SDS011;57229;51.432;-2.598;2022-10-16T03:31:35;8.80;;;2.60;;
56255;SDS011;57229;51.432;-2.598;2022-10-16T03:34:07;6.75;;;2.47;;
56255;SDS011;57229;51.432;-2.598;2022-10-16T03:36:53;5.70;;;2.85;;
56255;SDS011;57229;51.432;-2.598;2022-10-16T03:39:24;7.15;;;2.90;;
56255;SDS011;57229;51.432;-2.598;2022-10-16T03:45:53;7.28;;;2.38;;
56255;SDS011;57229;51.432;-2.598;2022-10-16T03:48:23;5.78;;;2.40;;
56255;SDS011;57229;51.432;-2.598;2022-10-16T03:50:49;6.70;;;2.60;;
56255;SDS011;57229;51.432;-2.598;2022-10-16T03:53:15;7.35;;;2.60;;
56255;SDS011;57229;51.432;-2.598;2022-10-16T03:55:42;4.57;;;2.50;;
56255;SDS011;57229;51.432;-2.598;2022-10-16T03:58:08;7.07;;;2.63;;
56255;SDS011;57229;51.432;-2.598;2022-10-16T04:00:34;6.22;;;2.47;;
56255;SDS011;57229;51.432;-2.598;2022-10-16T04:03:00;6.43;;;2.42;;
56255;SDS011;57229;51.432;-2.598;2022-10-16T04:05:26;5.90;;;2.40;;
56255;SDS011;57229;51.432;-2.598;2022-10-16T04:08:03;10.48;;;3.03;;
56255;SDS011;57229;51.432;-2.598;2022-10-16T04:10:29;6.70;;;2.40;;
56255;SDS011;57229;51.432;-2.598;2022-10-16T04:12:55;7.28;;;2.67;;
56255;SDS011;57229;51.432;-2.598;2022-10-16T04:15:24;5.25;;;2.38;;
56255;SDS011;57229;51.432;-2.598;2022-10-16T04:17:50;6.25;;;2.33;;
56255;SDS011;57229;51.432;-2.598;2022-10-16T04:20:17;5.90;;;2.10;;
56255;SDS011;57229;51.432;-2.598;2022-10-16T04:22:43;8.65;;;2.80;;
56255;SDS011;57229;51.432;-2.598;2022-10-16T04:25:12;7.43;;;2.50;;
56255;SDS011;57229;51.432;-2.598;2022-10-16T04:27:38;6.40;;;2.65;;
56255;SDS011;57229;51.432;-2.598;2022-10-16T04:30:04;3.75;;;2.08;;
56255;SDS011;57229;51.432;-2.598;2022-10-16T04:32:36;6.70;;;2.42;;
56255;SDS011;57229;51.432;-2.598;2022-10-16T04:35:16;11.52;;;2.53;;
56255;SDS011;57229;51.432;-2.598;2022-10-16T04:37:43;8.25;;;2.50;;
56255;SDS011;57229;51.432;-2.598;2022-10-16T04:40:33;7.68;;;2.53;;
56255;SDS011;57229;51.432;-2.598;2022-10-16T04:43:01;4.95;;;2.58;;
56255;SDS011;57229;51.432;-2.598;2022-10-16T04:45:28;7.38;;;2.58;;
56255;SDS011;57229;51.432;-2.598;2022-10-16T04:47:56;6.68;;;2.53;;
56255;SDS011;57229;51.432;-2.598;2022-10-16T04:50:25;6.20;;;2.30;;
56255;SDS011;57229;51.432;-2.598;2022-10-16T04:52:51;6.32;;;2.63;;
56255;SDS011;57229;51.432;-2.598;2022-10-16T04:55:16;5.75;;;2.55;;
56255;SDS011;57229;51.432;-2.598;2022-10-16T04:57:42;7.38;;;2.42;;
56255;SDS011;57229;51.432;-2.598;2022-10-16T05:00:08;4.22;;;2.17;;
56255;SDS011;57229;51.432;-2.598;2022-10-16T05:02:34;4.60;;;2.20;;
56255;SDS011;57229;51.432;-2.598;2022-10-16T05:05:00;6.22;;;2.47;;
56255;SDS011;57229;51.432;-2.598;2022-10-16T05:07:26;6.47;;;2.75;;
56255;SDS011;57229;51.432;-2.598;2022-10-16T05:09:51;5.35;;;2.38;;
56255;SDS011;57229;51.432;-2.598;2022-10-16T05:12:20;7.40;;;2.65;;
56255;SDS011;57229;51.432;-2.598;2022-10-16T05:14:46;4.35;;;2.40;;
56255;SDS011;57229;51.432;-2.598;2022-10-16T05:17:11;5.93;;;2.55;;
56255;SDS011;57229;51.432;-2.598;2022-10-16T05:19:37;4.53;;;2.20;;
56255;SDS011;57229;51.432;-2.598;2022-10-16T05:22:03;6.13;;;2.40;;
56255;SDS011;57229;51.432;-2.598;2022-10-16T05:24:28;5.40;;;2.53;;
56255;SDS011;57229;51.432;-2.598;2022-10-16T05:26:54;4.72;;;2.35;;
56255;SDS011;57229;51.432;-2.598;2022-10-16T05:29:20;6.47;;;2.60;;
56255;SDS011;57229;51.432;-2.598;2022-10-16T05:31:52;4.50;;;2.30;;
56255;SDS011;57229;51.432;-2.598;2022-10-16T05:34:18;4.70;;;2.22;;
56255;SDS011;57229;51.432;-2.598;2022-10-16T05:36:45;5.28;;;2.40;;
56255;SDS011;57229;51.432;-2.598;2022-10-16T05:39:11;5.90;;;2.33;;
56255;SDS011;57229;51.432;-2.598;2022-10-16T05:41:37;3.85;;;2.20;;
56255;SDS011;57229;51.432;-2.598;2022-10-16T05:44:06;5.90;;;2.45;;
56255;SDS011;57229;51.432;-2.598;2022-10-16T05:46:34;5.93;;;2.40;;
56255;SDS011;57229;51.432;-2.598;2022-10-16T05:49:21;5.72;;;2.58;;
56255;SDS011;57229;51.432;-2.598;2022-10-16T05:51:49;5.80;;;2.78;;
56255;SDS011;57229;51.432;-2.598;2022-10-16T05:54:18;6.30;;;2.20;;
56255;SDS011;57229;51.432;-2.598;2022-10-16T05:56:44;3.75;;;2.00;;
56255;SDS011;57229;51.432;-2.598;2022-10-16T05:59:10;5.57;;;2.38;;
56255;SDS011;57229;51.432;-2.598;2022-10-16T06:01:47;5.68;;;2.30;;
56255;SDS011;57229;51.432;-2.598;2022-10-16T06:04:13;4.32;;;2.20;;
56255;SDS011;57229;51.432;-2.598;2022-10-16T06:06:45;5.90;;;2.28;;
56255;SDS011;57229;51.432;-2.598;2022-10-16T06:09:11;5.05;;;2.30;;
56255;SDS011;57229;51.432;-2.598;2022-10-16T06:11:39;4.18;;;2.40;;
56255;SDS011;57229;51.432;-2.598;2022-10-16T06:14:05;5.40;;;2.10;;
56255;SDS011;57229;51.432;-2.598;2022-10-16T06:16:37;4.70;;;2.15;;
56255;SDS011;57229;51.432;-2.598;2022-10-16T06:19:03;7.35;;;2.63;;
56255;SDS011;57229;51.432;-2.598;2022-10-16T06:21:52;4.63;;;2.50;;
56255;SDS011;57229;51.432;-2.598;2022-10-16T06:24:29;7.70;;;2.20;;
56255;SDS011;57229;51.432;-2.598;2022-10-16T06:27:04;5.65;;;2.35;;
56255;SDS011;57229;51.432;-2.598;2022-10-16T06:29:51;5.30;;;2.30;;
56255;SDS011;57229;51.432;-2.598;2022-10-16T06:35:44;8.02;;;2.40;;
56255;SDS011;57229;51.432;-2.598;2022-10-16T06:38:09;5.88;;;2.17;;
56255;SDS011;57229;51.432;-2.598;2022-10-16T06:40:35;5.45;;;2.30;;
56255;SDS011;57229;51.432;-2.598;2022-10-16T06:43:01;7.25;;;2.60;;
56255;SDS011;57229;51.432;-2.598;2022-10-16T06:45:30;4.65;;;2.20;;
56255;SDS011;57229;51.432;-2.598;2022-10-16T06:47:59;6.95;;;2.22;;
56255;SDS011;57229;51.432;-2.598;2022-10-16T06:50:25;5.10;;;2.90;;
56255;SDS011;57229;51.432;-2.598;2022-10-16T06:52:51;5.50;;;2.22;;
56255;SDS011;57229;51.432;-2.598;2022-10-16T06:55:17;6.15;;;2.00;;
56255;SDS011;57229;51.432;-2.598;2022-10-16T06:57:43;7.75;;;2.13;;
56255;SDS011;57229;51.432;-2.598;2022-10-16T07:00:11;4.47;;;2.20;;
56255;SDS011;57229;51.432;-2.598;2022-10-16T07:02:40;6.10;;;2.30;;
56255;SDS011;57229;51.432;-2.598;2022-10-16T07:19:52;6.68;;;2.42;;
56255;SDS011;57229;51.432;-2.598;2022-10-16T07:32:26;4.65;;;2.10;;
56255;SDS011;57229;51.432;-2.598;2022-10-16T07:50:05;4.60;;;2.17;;
56255;SDS011;57229;51.432;-2.598;2022-10-16T07:59:07;3.63;;;2.35;;
56255;SDS011;57229;51.432;-2.598;2022-10-16T08:01:49;4.63;;;2.10;;
56255;SDS011;57229;51.432;-2.598;2022-10-16T08:04:17;6.10;;;2.20;;
56255;SDS011;57229;51.432;-2.598;2022-10-16T08:06:46;5.95;;;2.78;;
56255;SDS011;57229;51.432;-2.598;2022-10-16T08:09:16;5.82;;;2.38;;
56255;SDS011;57229;51.432;-2.598;2022-10-16T08:11:44;3.83;;;2.30;;
56255;SDS011;57229;51.432;-2.598;2022-10-16T08:14:12;5.32;;;2.65;;
56255;SDS011;57229;51.432;-2.598;2022-10-16T08:16:38;5.93;;;2.17;;
56255;SDS011;57229;51.432;-2.598;2022-10-16T08:19:04;4.68;;;2.35;;
56255;SDS011;57229;51.432;-2.598;2022-10-16T08:21:35;5.25;;;2.33;;
56255;SDS011;57229;51.432;-2.598;2022-10-16T08:24:01;9.85;;;2.63;;
56255;SDS011;57229;51.432;-2.598;2022-10-16T08:26:27;7.03;;;2.30;;
56255;SDS011;57229;51.432;-2.598;2022-10-16T08:28:53;4.32;;;2.10;;
56255;SDS011;57229;51.432;-2.598;2022-10-16T08:31:19;4.05;;;1.90;;
56255;SDS011;57229;51.432;-2.598;2022-10-16T08:33:46;7.65;;;2.08;;
56255;SDS011;57229;51.432;-2.598;2022-10-16T08:36:13;5.25;;;2.28;;
56255;SDS011;57229;51.432;-2.598;2022-10-16T08:38:39;12.07;;;3.05;;
56255;SDS011;57229;51.432;-2.598;2022-10-16T08:49:13;11.38;;;2.80;;
56255;SDS011;57229;51.432;-2.598;2022-10-16T08:51:39;13.60;;;3.03;;
56255;SDS011;57229;51.432;-2.598;2022-10-16T08:54:21;5.85;;;2.55;;
56255;SDS011;57229;51.432;-2.598;2022-10-16T08:56:55;11.00;;;2.83;;
56255;SDS011;57229;51.432;-2.598;2022-10-16T08:59:23;7.88;;;2.75;;
56255;SDS011;57229;51.432;-2.598;2022-10-16T09:01:49;10.27;;;2.50;;
56255;SDS011;57229;51.432;-2.598;2022-10-16T09:21:40;7.18;;;2.50;;
56255;SDS011;57229;51.432;-2.598;2022-10-16T09:24:19;8.52;;;2.65;;
56255;SDS011;57229;51.432;-2.598;2022-10-16T09:26:47;5.57;;;2.30;;
56255;SDS011;57229;51.432;-2.598;2022-10-16T09:29:13;11.93;;;2.92;;
56255;SDS011;57229;51.432;-2.598;2022-10-16T09:31:41;6.18;;;2.58;;
56255;SDS011;57229;51.432;-2.598;2022-10-16T09:34:13;7.35;;;2.70;;
56255;SDS011;57229;51.432;-2.598;2022-10-16T09:36:53;9.65;;;2.70;;
56255;SDS011;57229;51.432;-2.598;2022-10-16T09:39:21;6.93;;;2.40;;
56255;SDS011;57229;51.432;-2.598;2022-10-16T09:41:46;7.53;;;2.47;;
56255;SDS011;57229;51.432;-2.598;2022-10-16T09:44:28;7.28;;;2.50;;
56255;SDS011;57229;51.432;-2.598;2022-10-16T09:47:02;7.97;;;2.45;;
56255;SDS011;57229;51.432;-2.598;2022-10-16T09:49:32;6.85;;;2.53;;
56255;SDS011;57229;51.432;-2.598;2022-10-16T09:52:05;8.05;;;2.80;;
56255;SDS011;57229;51.432;-2.598;2022-10-16T09:57:21;8.07;;;3.05;;
56255;SDS011;57229;51.432;-2.598;2022-10-16T09:59:48;7.05;;;2.60;;
56255;SDS011;57229;51.432;-2.598;2022-10-16T10:02:30;8.00;;;2.90;;
56255;SDS011;57229;51.432;-2.598;2022-10-16T10:04:59;8.82;;;2.75;;
56255;SDS011;57229;51.432;-2.598;2022-10-16T10:07:27;9.10;;;2.72;;
56255;SDS011;57229;51.432;-2.598;2022-10-16T10:09:59;7.63;;;3.03;;
56255;SDS011;57229;51.432;-2.598;2022-10-16T10:12:27;7.15;;;3.25;;
56255;SDS011;57229;51.432;-2.598;2022-10-16T10:14:56;7.93;;;3.00;;
56255;SDS011;57229;51.432;-2.598;2022-10-16T10:17:26;10.57;;;3.40;;
56255;SDS011;57229;51.432;-2.598;2022-10-16T10:19:58;7.70;;;3.47;;
56255;SDS011;57229;51.432;-2.598;2022-10-16T10:35:32;5.93;;;3.00;;
56255;SDS011;57229;51.432;-2.598;2022-10-16T10:41:12;8.32;;;3.38;;
56255;SDS011;57229;51.432;-2.598;2022-10-16T10:46:38;7.50;;;3.70;;
56255;SDS011;57229;51.432;-2.598;2022-10-16T11:06:01;9.52;;;4.03;;
56255;SDS011;57229;51.432;-2.598;2022-10-16T11:08:41;10.18;;;3.85;;
56255;SDS011;57229;51.432;-2.598;2022-10-16T11:16:51;10.25;;;4.10;;
56255;SDS011;57229;51.432;-2.598;2022-10-16T11:24:53;10.02;;;4.38;;
56255;SDS011;57229;51.432;-2.598;2022-10-16T11:27:43;10.05;;;4.57;;
56255;SDS011;57229;51.432;-2.598;2022-10-16T11:30:24;8.90;;;3.83;;
56255;SDS011;57229;51.432;-2.598;2022-10-16T11:33:18;8.50;;;3.88;;
56255;SDS011;57229;51.432;-2.598;2022-10-16T11:35:56;9.73;;;4.15;;
56255;SDS011;57229;51.432;-2.598;2022-10-16T11:38:32;6.85;;;4.38;;
56255;SDS011;57229;51.432;-2.598;2022-10-16T11:44:32;10.45;;;4.53;;
56255;SDS011;57229;51.432;-2.598;2022-10-16T11:46:52;10.27;;;4.45;;
56255;SDS011;57229;51.432;-2.598;2022-10-16T11:49:26;8.43;;;4.40;;
56255;SDS011;57229;51.432;-2.598;2022-10-16T11:55:22;11.35;;;4.47;;
56255;SDS011;57229;51.432;-2.598;2022-10-16T11:57:29;11.02;;;4.75;;
56255;SDS011;57229;51.432;-2.598;2022-10-16T12:00:01;10.65;;;4.95;;
56255;SDS011;57229;51.432;-2.598;2022-10-16T12:05:32;11.00;;;4.75;;
56255;SDS011;57229;51.432;-2.598;2022-10-16T12:08:15;9.23;;;4.57;;
56255;SDS011;57229;51.432;-2.598;2022-10-16T12:10:45;11.23;;;4.78;;
56255;SDS011;57229;51.432;-2.598;2022-10-16T12:16:36;12.80;;;5.15;;
56255;SDS011;57229;51.432;-2.598;2022-10-16T12:19:07;11.25;;;5.07;;
56255;SDS011;57229;51.432;-2.598;2022-10-16T12:21:34;12.55;;;5.22;;
56255;SDS011;57229;51.432;-2.598;2022-10-16T12:24:01;11.40;;;5.30;;
56255;SDS011;57229;51.432;-2.598;2022-10-16T12:26:31;13.18;;;4.97;;
56255;SDS011;57229;51.432;-2.598;2022-10-16T12:29:18;10.43;;;5.10;;
56255;SDS011;57229;51.432;-2.598;2022-10-16T12:31:53;13.43;;;5.53;;
56255;SDS011;57229;51.432;-2.598;2022-10-16T12:34:21;11.50;;;5.53;;
56255;SDS011;57229;51.432;-2.598;2022-10-16T12:36:51;11.35;;;5.20;;
56255;SDS011;57229;51.432;-2.598;2022-10-16T12:39:20;13.88;;;6.10;;
56255;SDS011;57229;51.432;-2.598;2022-10-16T12:41:48;15.23;;;5.80;;
56255;SDS011;57229;51.432;-2.598;2022-10-16T12:44:27;12.77;;;5.75;;
56255;SDS011;57229;51.432;-2.598;2022-10-16T12:46:58;16.48;;;6.30;;
56255;SDS011;57229;51.432;-2.598;2022-10-16T12:49:31;16.80;;;6.15;;
56255;SDS011;57229;51.432;-2.598;2022-10-16T12:52:01;14.77;;;5.60;;
56255;SDS011;57229;51.432;-2.598;2022-10-16T12:54:34;17.20;;;6.82;;
56255;SDS011;57229;51.432;-2.598;2022-10-16T13:00:09;14.85;;;6.30;;
56255;SDS011;57229;51.432;-2.598;2022-10-16T13:10:37;13.07;;;6.10;;
56255;SDS011;57229;51.432;-2.598;2022-10-16T13:13:14;12.63;;;6.13;;
56255;SDS011;57229;51.432;-2.598;2022-10-16T13:15:50;14.60;;;5.68;;
56255;SDS011;57229;51.432;-2.598;2022-10-16T13:18:40;16.95;;;6.55;;
56255;SDS011;57229;51.432;-2.598;2022-10-16T13:21:32;14.43;;;6.32;;
56255;SDS011;57229;51.432;-2.598;2022-10-16T13:24:42;11.43;;;5.95;;
56255;SDS011;57229;51.432;-2.598;2022-10-16T13:30:10;15.45;;;6.45;;
56255;SDS011;57229;51.432;-2.598;2022-10-16T13:32:44;12.68;;;6.22;;
56255;SDS011;57229;51.432;-2.598;2022-10-16T13:35:19;14.52;;;7.03;;
56255;SDS011;57229;51.432;-2.598;2022-10-16T13:37:47;16.33;;;6.40;;
56255;SDS011;57229;51.432;-2.598;2022-10-16T13:40:22;13.07;;;5.65;;
56255;SDS011;57229;51.432;-2.598;2022-10-16T13:42:50;17.92;;;6.97;;
56255;SDS011;57229;51.432;-2.598;2022-10-16T13:45:18;15.35;;;6.13;;
56255;SDS011;57229;51.432;-2.598;2022-10-16T13:47:48;14.32;;;6.25;;
56255;SDS011;57229;51.432;-2.598;2022-10-16T13:50:17;13.38;;;6.22;;
56255;SDS011;57229;51.432;-2.598;2022-10-16T13:52:43;13.35;;;5.97;;
56255;SDS011;57229;51.432;-2.598;2022-10-16T13:55:14;14.90;;;6.00;;
56255;SDS011;57229;51.432;-2.598;2022-10-16T13:57:41;18.95;;;6.28;;
56255;SDS011;57229;51.432;-2.598;2022-10-16T14:03:15;16.20;;;6.32;;
56255;SDS011;57229;51.432;-2.598;2022-10-16T14:05:47;19.88;;;6.05;;
56255;SDS011;57229;51.432;-2.598;2022-10-16T14:08:16;21.75;;;5.95;;
56255;SDS011;57229;51.432;-2.598;2022-10-16T14:10:42;15.73;;;6.05;;
56255;SDS011;57229;51.432;-2.598;2022-10-16T14:13:13;16.27;;;5.55;;
56255;SDS011;57229;51.432;-2.598;2022-10-16T14:15:48;20.75;;;6.30;;
56255;SDS011;57229;51.432;-2.598;2022-10-16T14:18:18;16.42;;;5.35;;
56255;SDS011;57229;51.432;-2.598;2022-10-16T14:20:49;26.58;;;5.50;;
56255;SDS011;57229;51.432;-2.598;2022-10-16T14:23:23;14.52;;;6.93;;
56255;SDS011;57229;51.432;-2.598;2022-10-16T14:25:53;21.90;;;6.10;;
56255;SDS011;57229;51.432;-2.598;2022-10-16T14:28:30;17.92;;;5.97;;
56255;SDS011;57229;51.432;-2.598;2022-10-16T14:30:56;20.08;;;6.75;;
56255;SDS011;57229;51.432;-2.598;2022-10-16T14:33:25;13.30;;;5.70;;
56255;SDS011;57229;51.432;-2.598;2022-10-16T14:36:05;10.77;;;5.10;;
56255;SDS011;57229;51.432;-2.598;2022-10-16T14:38:34;14.02;;;5.80;;
56255;SDS011;57229;51.432;-2.598;2022-10-16T14:40:59;12.20;;;4.75;;
56255;SDS011;57229;51.432;-2.598;2022-10-16T14:43:29;12.65;;;5.30;;
56255;SDS011;57229;51.432;-2.598;2022-10-16T14:45:59;11.45;;;5.75;;
56255;SDS011;57229;51.432;-2.598;2022-10-16T14:48:27;12.27;;;5.82;;
56255;SDS011;57229;51.432;-2.598;2022-10-16T14:50:53;22.65;;;5.78;;
56255;SDS011;57229;51.432;-2.598;2022-10-16T14:53:21;10.57;;;5.03;;
56255;SDS011;57229;51.432;-2.598;2022-10-16T14:55:47;11.00;;;5.10;;
56255;SDS011;57229;51.432;-2.598;2022-10-16T14:58:22;8.57;;;4.53;;
56255;SDS011;57229;51.432;-2.598;2022-10-16T15:03:21;14.20;;;4.43;;
56255;SDS011;57229;51.432;-2.598;2022-10-16T15:05:46;12.02;;;4.65;;
56255;SDS011;57229;51.432;-2.598;2022-10-16T15:08:12;12.70;;;4.75;;
56255;SDS011;57229;51.432;-2.598;2022-10-16T15:10:40;12.75;;;4.78;;
56255;SDS011;57229;51.432;-2.598;2022-10-16T15:13:11;13.70;;;4.80;;
56255;SDS011;57229;51.432;-2.598;2022-10-16T15:15:42;13.35;;;4.88;;
56255;SDS011;57229;51.432;-2.598;2022-10-16T15:18:09;11.82;;;4.70;;
56255;SDS011;57229;51.432;-2.598;2022-10-16T15:20:35;13.02;;;4.97;;
56255;SDS011;57229;51.432;-2.598;2022-10-16T15:23:04;11.23;;;4.63;;
56255;SDS011;57229;51.432;-2.598;2022-10-16T15:25:47;10.35;;;4.63;;
56255;SDS011;57229;51.432;-2.598;2022-10-16T15:28:15;13.63;;;4.60;;
56255;SDS011;57229;51.432;-2.598;2022-10-16T15:30:42;13.73;;;3.90;;
56255;SDS011;57229;51.432;-2.598;2022-10-16T15:33:15;12.30;;;4.88;;
56255;SDS011;57229;51.432;-2.598;2022-10-16T15:35:42;20.48;;;5.50;;
56255;SDS011;57229;51.432;-2.598;2022-10-16T15:38:12;18.30;;;5.32;;
56255;SDS011;57229;51.432;-2.598;2022-10-16T15:40:38;11.80;;;4.40;;
56255;SDS011;57229;51.432;-2.598;2022-10-16T15:43:05;14.38;;;4.07;;
56255;SDS011;57229;51.432;-2.598;2022-10-16T15:45:31;18.30;;;4.78;;
56255;SDS011;57229;51.432;-2.598;2022-10-16T15:47:56;12.23;;;4.47;;
56255;SDS011;57229;51.432;-2.598;2022-10-16T15:50:22;18.48;;;4.50;;
56255;SDS011;57229;51.432;-2.598;2022-10-16T15:52:48;10.05;;;4.88;;
56255;SDS011;57229;51.432;-2.598;2022-10-16T15:55:15;18.75;;;5.03;;
56255;SDS011;57229;51.432;-2.598;2022-10-16T15:57:41;12.95;;;4.47;;
56255;SDS011;57229;51.432;-2.598;2022-10-16T16:00:09;10.10;;;4.40;;
56255;SDS011;57229;51.432;-2.598;2022-10-16T16:02:40;16.35;;;4.45;;
56255;SDS011;57229;51.432;-2.598;2022-10-16T16:05:06;14.07;;;4.47;;
56255;SDS011;57229;51.432;-2.598;2022-10-16T16:07:33;13.57;;;4.60;;
56255;SDS011;57229;51.432;-2.598;2022-10-16T16:10:00;18.42;;;4.85;;
56255;SDS011;57229;51.432;-2.598;2022-10-16T16:12:26;14.40;;;4.22;;
56255;SDS011;57229;51.432;-2.598;2022-10-16T16:14:52;14.80;;;4.57;;
56255;SDS011;57229;51.432;-2.598;2022-10-16T16:17:17;9.57;;;4.38;;
56255;SDS011;57229;51.432;-2.598;2022-10-16T16:19:43;17.33;;;4.18;;
56255;SDS011;57229;51.432;-2.598;2022-10-16T16:22:10;14.18;;;4.60;;
56255;SDS011;57229;51.432;-2.598;2022-10-16T16:24:36;13.48;;;4.05;;
56255;SDS011;57229;51.432;-2.598;2022-10-16T16:27:01;12.13;;;4.05;;
56255;SDS011;57229;51.432;-2.598;2022-10-16T16:29:27;9.10;;;3.92;;
56255;SDS011;57229;51.432;-2.598;2022-10-16T16:31:53;15.45;;;3.60;;
56255;SDS011;57229;51.432;-2.598;2022-10-16T16:34:23;9.75;;;3.88;;
56255;SDS011;57229;51.432;-2.598;2022-10-16T16:36:52;11.18;;;3.75;;
56255;SDS011;57229;51.432;-2.598;2022-10-16T16:39:18;10.23;;;4.03;;
56255;SDS011;57229;51.432;-2.598;2022-10-16T16:41:44;14.18;;;3.88;;
56255;SDS011;57229;51.432;-2.598;2022-10-16T16:44:11;11.43;;;3.67;;
56255;SDS011;57229;51.432;-2.598;2022-10-16T16:46:37;10.88;;;4.03;;
56255;SDS011;57229;51.432;-2.598;2022-10-16T16:49:04;10.07;;;4.07;;
56255;SDS011;57229;51.432;-2.598;2022-10-16T16:51:31;14.23;;;3.67;;
56255;SDS011;57229;51.432;-2.598;2022-10-16T16:53:58;9.98;;;3.53;;
56255;SDS011;57229;51.432;-2.598;2022-10-16T16:56:24;11.43;;;3.35;;
56255;SDS011;57229;51.432;-2.598;2022-10-16T16:58:53;13.95;;;3.05;;
56255;SDS011;57229;51.432;-2.598;2022-10-16T17:01:20;9.93;;;3.38;;
56255;SDS011;57229;51.432;-2.598;2022-10-16T17:03:48;10.93;;;3.33;;
56255;SDS011;57229;51.432;-2.598;2022-10-16T17:06:16;10.95;;;3.13;;
56255;SDS011;57229;51.432;-2.598;2022-10-16T17:08:43;5.35;;;3.03;;
56255;SDS011;57229;51.432;-2.598;2022-10-16T17:11:13;9.57;;;3.60;;
56255;SDS011;57229;51.432;-2.598;2022-10-16T17:13:42;8.52;;;2.78;;
56255;SDS011;57229;51.432;-2.598;2022-10-16T17:16:08;9.52;;;3.53;;
56255;SDS011;57229;51.432;-2.598;2022-10-16T17:18:34;6.35;;;2.80;;
56255;SDS011;57229;51.432;-2.598;2022-10-16T17:21:01;10.15;;;3.42;;
56255;SDS011;57229;51.432;-2.598;2022-10-16T17:23:28;7.22;;;2.72;;
56255;SDS011;57229;51.432;-2.598;2022-10-16T17:25:54;9.10;;;2.72;;
56255;SDS011;57229;51.432;-2.598;2022-10-16T17:28:20;7.13;;;2.80;;
56255;SDS011;57229;51.432;-2.598;2022-10-16T17:30:46;5.38;;;2.72;;
56255;SDS011;57229;51.432;-2.598;2022-10-16T17:33:12;9.18;;;3.45;;
56255;SDS011;57229;51.432;-2.598;2022-10-16T17:35:39;12.15;;;3.90;;
56255;SDS011;57229;51.432;-2.598;2022-10-16T17:44:55;19.85;;;9.40;;
56255;SDS011;57229;51.432;-2.598;2022-10-16T17:47:22;21.48;;;12.15;;
56255;SDS011;57229;51.432;-2.598;2022-10-16T17:59:07;25.13;;;15.95;;
56255;SDS011;57229;51.432;-2.598;2022-10-16T18:02:21;23.95;;;17.65;;
56255;SDS011;57229;51.432;-2.598;2022-10-16T18:04:53;24.10;;;16.75;;
56255;SDS011;57229;51.432;-2.598;2022-10-16T18:10:44;23.27;;;18.45;;
56255;SDS011;57229;51.432;-2.598;2022-10-16T18:16:37;23.08;;;19.25;;
56255;SDS011;57229;51.432;-2.598;2022-10-16T18:19:03;21.92;;;19.13;;
56255;SDS011;57229;51.432;-2.598;2022-10-16T18:31:11;28.52;;;19.55;;
56255;SDS011;57229;51.432;-2.598;2022-10-16T18:33:41;22.63;;;18.45;;
56255;SDS011;57229;51.432;-2.598;2022-10-16T18:36:12;26.58;;;19.75;;
56255;SDS011;57229;51.432;-2.598;2022-10-16T18:38:57;23.80;;;19.42;;
56255;SDS011;57229;51.432;-2.598;2022-10-16T18:42:06;22.45;;;18.55;;
56255;SDS011;57229;51.432;-2.598;2022-10-16T19:14:35;19.65;;;17.83;;
56255;SDS011;57229;51.432;-2.598;2022-10-16T19:17:01;19.65;;;17.60;;
56255;SDS011;57229;51.432;-2.598;2022-10-16T19:19:30;19.25;;;17.27;;
56255;SDS011;57229;51.432;-2.598;2022-10-16T19:21:55;18.50;;;16.45;;
56255;SDS011;57229;51.432;-2.598;2022-10-16T19:24:56;20.02;;;17.02;;
56255;SDS011;57229;51.432;-2.598;2022-10-16T19:27:22;19.00;;;17.10;;
56255;SDS011;57229;51.432;-2.598;2022-10-16T19:29:51;18.70;;;16.90;;
56255;SDS011;57229;51.432;-2.598;2022-10-16T19:32:20;18.13;;;16.33;;
56255;SDS011;57229;51.432;-2.598;2022-10-16T19:55:40;16.45;;;14.65;;
56255;SDS011;57229;51.432;-2.598;2022-10-16T19:58:08;14.75;;;13.20;;
56255;SDS011;57229;51.432;-2.598;2022-10-16T20:00:53;14.27;;;12.88;;
56255;SDS011;57229;51.432;-2.598;2022-10-16T20:03:25;14.85;;;13.35;;
56255;SDS011;57229;51.432;-2.598;2022-10-16T20:22:42;11.90;;;10.68;;
56255;SDS011;57229;51.432;-2.598;2022-10-16T20:25:17;13.88;;;10.52;;
56255;SDS011;57229;51.432;-2.598;2022-10-16T20:28:07;11.80;;;10.30;;
56255;SDS011;57229;51.432;-2.598;2022-10-16T20:30:39;10.43;;;9.38;;
56255;SDS011;57229;51.432;-2.598;2022-10-16T20:36:47;10.80;;;9.45;;
56255;SDS011;57229;51.432;-2.598;2022-10-16T20:39:46;9.95;;;9.02;;
56255;SDS011;57229;51.432;-2.598;2022-10-16T20:46:10;9.45;;;8.43;;